sensor_id;sensor_type;location;lat;lon;timestamp;temperature;humidity
46356;DHT22;32066;49.474;11.106;2022-09-03T00:00:53;17.50;57.60
46356;DHT22;32066;49.474;11.106;2022-09-03T00:03:26;17.60;57.60
46356;DHT22;32066;49.474;11.106;2022-09-03T00:06:04;17.50;57.80
46356;DHT22;32066;49.474;11.106;2022-09-03T00:08:37;17.40;57.80
46356;DHT22;32066;49.474;11.106;2022-09-03T00:11:11;17.40;57.80
46356;DHT22;32066;49.474;11.106;2022-09-03T00:13:43;17.40;58.10
46356;DHT22;32066;49.474;11.106;2022-09-03T00:16:14;17.30;58.10
46356;DHT22;32066;49.474;11.106;2022-09-03T00:18:45;17.30;58.40
46356;DHT22;32066;49.474;11.106;2022-09-03T00:21:17;17.20;58.70
46356;DHT22;32066;49.474;11.106;2022-09-03T00:23:49;17.20;58.60
46356;DHT22;32066;49.474;11.106;2022-09-03T00:26:21;17.10;58.80
46356;DHT22;32066;49.474;11.106;2022-09-03T00:28:56;17.10;58.90
46356;DHT22;32066;49.474;11.106;2022-09-03T00:31:29;17.20;58.80
46356;DHT22;32066;49.474;11.106;2022-09-03T00:34:01;17.20;58.70
46356;DHT22;32066;49.474;11.106;2022-09-03T00:36:34;17.20;58.90
46356;DHT22;32066;49.474;11.106;2022-09-03T00:39:09;17.10;59.80
46356;DHT22;32066;49.474;11.106;2022-09-03T00:41:39;17.00;59.50
46356;DHT22;32066;49.474;11.106;2022-09-03T00:44:19;16.90;59.60
46356;DHT22;32066;49.474;11.106;2022-09-03T00:46:55;17.00;59.70
46356;DHT22;32066;49.474;11.106;2022-09-03T00:49:34;16.90;59.80
46356;DHT22;32066;49.474;11.106;2022-09-03T00:52:10;16.90;59.90
46356;DHT22;32066;49.474;11.106;2022-09-03T00:54:45;16.90;59.80
46356;DHT22;32066;49.474;11.106;2022-09-03T00:57:24;16.80;60.00
46356;DHT22;32066;49.474;11.106;2022-09-03T01:00:00;16.90;59.80
46356;DHT22;32066;49.474;11.106;2022-09-03T01:02:36;16.80;60.20
46356;DHT22;32066;49.474;11.106;2022-09-03T01:05:10;16.80;60.50
46356;DHT22;32066;49.474;11.106;2022-09-03T01:07:41;16.70;60.50
46356;DHT22;32066;49.474;11.106;2022-09-03T01:10:19;16.70;60.60
46356;DHT22;32066;49.474;11.106;2022-09-03T01:12:55;16.70;60.90
46356;DHT22;32066;49.474;11.106;2022-09-03T01:15:30;16.70;60.80
46356;DHT22;32066;49.474;11.106;2022-09-03T01:18:14;16.60;60.90
46356;DHT22;32066;49.474;11.106;2022-09-03T01:20:50;16.50;61.50
46356;DHT22;32066;49.474;11.106;2022-09-03T01:23:55;16.50;61.40
46356;DHT22;32066;49.474;11.106;2022-09-03T01:26:49;16.50;61.40
46356;DHT22;32066;49.474;11.106;2022-09-03T01:29:24;16.50;61.70
46356;DHT22;32066;49.474;11.106;2022-09-03T01:32:00;16.50;61.40
46356;DHT22;32066;49.474;11.106;2022-09-03T01:34:41;16.60;61.60
46356;DHT22;32066;49.474;11.106;2022-09-03T01:37:14;16.50;61.90
46356;DHT22;32066;49.474;11.106;2022-09-03T01:39:54;16.50;61.50
46356;DHT22;32066;49.474;11.106;2022-09-03T01:42:32;16.40;61.60
46356;DHT22;32066;49.474;11.106;2022-09-03T01:45:17;16.40;62.10
46356;DHT22;32066;49.474;11.106;2022-09-03T01:47:55;16.30;62.40
46356;DHT22;32066;49.474;11.106;2022-09-03T01:50:32;16.30;62.60
46356;DHT22;32066;49.474;11.106;2022-09-03T01:53:06;16.30;62.40
46356;DHT22;32066;49.474;11.106;2022-09-03T01:55:42;16.30;62.20
46356;DHT22;32066;49.474;11.106;2022-09-03T01:58:15;16.20;62.70
46356;DHT22;32066;49.474;11.106;2022-09-03T02:00:49;16.20;62.70
46356;DHT22;32066;49.474;11.106;2022-09-03T02:03:21;16.20;62.90
46356;DHT22;32066;49.474;11.106;2022-09-03T02:05:49;16.20;63.00
46356;DHT22;32066;49.474;11.106;2022-09-03T02:08:18;16.00;63.40
46356;DHT22;32066;49.474;11.106;2022-09-03T02:10:48;16.10;63.30
46356;DHT22;32066;49.474;11.106;2022-09-03T02:13:18;16.00;63.60
46356;DHT22;32066;49.474;11.106;2022-09-03T02:15:49;16.00;63.30
46356;DHT22;32066;49.474;11.106;2022-09-03T02:18:19;16.10;63.20
46356;DHT22;32066;49.474;11.106;2022-09-03T02:20:46;16.00;63.30
46356;DHT22;32066;49.474;11.106;2022-09-03T02:23:14;15.90;64.10
46356;DHT22;32066;49.474;11.106;2022-09-03T02:25:44;15.90;64.00
46356;DHT22;32066;49.474;11.106;2022-09-03T02:28:12;16.00;63.90
46356;DHT22;32066;49.474;11.106;2022-09-03T02:30:40;16.10;63.70
46356;DHT22;32066;49.474;11.106;2022-09-03T02:33:09;15.90;63.70
46356;DHT22;32066;49.474;11.106;2022-09-03T02:35:36;16.00;64.10
46356;DHT22;32066;49.474;11.106;2022-09-03T02:38:11;15.90;63.90
46356;DHT22;32066;49.474;11.106;2022-09-03T02:40:38;15.90;63.90
46356;DHT22;32066;49.474;11.106;2022-09-03T02:43:10;15.90;64.20
46356;DHT22;32066;49.474;11.106;2022-09-03T02:45:44;15.70;64.40
46356;DHT22;32066;49.474;11.106;2022-09-03T02:48:15;15.60;64.90
46356;DHT22;32066;49.474;11.106;2022-09-03T02:50:43;15.60;65.00
46356;DHT22;32066;49.474;11.106;2022-09-03T02:53:10;15.50;65.10
46356;DHT22;32066;49.474;11.106;2022-09-03T02:55:36;15.50;65.50
46356;DHT22;32066;49.474;11.106;2022-09-03T02:58:03;15.40;65.60
46356;DHT22;32066;49.474;11.106;2022-09-03T03:00:33;15.60;65.50
46356;DHT22;32066;49.474;11.106;2022-09-03T03:03:00;15.50;65.40
46356;DHT22;32066;49.474;11.106;2022-09-03T03:05:33;15.50;65.60
46356;DHT22;32066;49.474;11.106;2022-09-03T03:08:02;15.50;65.50
46356;DHT22;32066;49.474;11.106;2022-09-03T03:10:28;15.50;66.10
46356;DHT22;32066;49.474;11.106;2022-09-03T03:12:55;15.40;65.90
46356;DHT22;32066;49.474;11.106;2022-09-03T03:15:22;15.50;65.90
46356;DHT22;32066;49.474;11.106;2022-09-03T03:17:49;15.40;66.10
46356;DHT22;32066;49.474;11.106;2022-09-03T03:20:16;15.40;66.10
46356;DHT22;32066;49.474;11.106;2022-09-03T03:22:44;15.20;66.60
46356;DHT22;32066;49.474;11.106;2022-09-03T03:25:11;15.10;67.20
46356;DHT22;32066;49.474;11.106;2022-09-03T03:27:38;15.20;67.40
46356;DHT22;32066;49.474;11.106;2022-09-03T03:30:08;15.20;67.00
46356;DHT22;32066;49.474;11.106;2022-09-03T03:32:35;15.30;66.90
46356;DHT22;32066;49.474;11.106;2022-09-03T03:35:03;15.40;66.60
46356;DHT22;32066;49.474;11.106;2022-09-03T03:37:30;15.50;66.40
46356;DHT22;32066;49.474;11.106;2022-09-03T03:39:59;15.50;66.10
46356;DHT22;32066;49.474;11.106;2022-09-03T03:42:25;15.50;66.30
46356;DHT22;32066;49.474;11.106;2022-09-03T03:44:52;15.40;66.80
46356;DHT22;32066;49.474;11.106;2022-09-03T03:47:20;15.30;66.90
46356;DHT22;32066;49.474;11.106;2022-09-03T03:49:47;15.30;66.80
46356;DHT22;32066;49.474;11.106;2022-09-03T03:52:13;15.40;66.70
46356;DHT22;32066;49.474;11.106;2022-09-03T03:54:40;15.40;66.70
46356;DHT22;32066;49.474;11.106;2022-09-03T03:57:08;15.30;66.90
46356;DHT22;32066;49.474;11.106;2022-09-03T03:59:35;15.30;67.60
46356;DHT22;32066;49.474;11.106;2022-09-03T04:02:02;15.30;67.00
46356;DHT22;32066;49.474;11.106;2022-09-03T04:04:29;15.30;67.20
46356;DHT22;32066;49.474;11.106;2022-09-03T04:06:56;15.30;67.10
46356;DHT22;32066;49.474;11.106;2022-09-03T04:09:23;15.30;67.30
46356;DHT22;32066;49.474;11.106;2022-09-03T04:11:50;15.30;67.40
46356;DHT22;32066;49.474;11.106;2022-09-03T04:14:18;15.20;67.40
46356;DHT22;32066;49.474;11.106;2022-09-03T04:16:45;15.20;67.50
46356;DHT22;32066;49.474;11.106;2022-09-03T04:19:12;15.30;67.20
46356;DHT22;32066;49.474;11.106;2022-09-03T04:21:39;15.30;67.20
46356;DHT22;32066;49.474;11.106;2022-09-03T04:24:06;15.30;67.40
46356;DHT22;32066;49.474;11.106;2022-09-03T04:26:33;15.30;67.30
46356;DHT22;32066;49.474;11.106;2022-09-03T04:29:02;15.20;67.40
46356;DHT22;32066;49.474;11.106;2022-09-03T04:31:31;15.30;67.50
46356;DHT22;32066;49.474;11.106;2022-09-03T04:33:58;15.30;67.40
46356;DHT22;32066;49.474;11.106;2022-09-03T04:36:27;15.10;67.70
46356;DHT22;32066;49.474;11.106;2022-09-03T04:38:56;15.20;67.80
46356;DHT22;32066;49.474;11.106;2022-09-03T04:41:25;15.20;67.70
46356;DHT22;32066;49.474;11.106;2022-09-03T04:43:53;15.10;68.10
46356;DHT22;32066;49.474;11.106;2022-09-03T04:46:22;15.00;68.50
46356;DHT22;32066;49.474;11.106;2022-09-03T04:48:53;15.20;68.10
46356;DHT22;32066;49.474;11.106;2022-09-03T04:51:24;15.20;67.70
46356;DHT22;32066;49.474;11.106;2022-09-03T04:53:54;15.20;67.90
46356;DHT22;32066;49.474;11.106;2022-09-03T04:56:23;15.30;68.50
46356;DHT22;32066;49.474;11.106;2022-09-03T04:58:54;15.20;67.60
46356;DHT22;32066;49.474;11.106;2022-09-03T05:01:23;15.30;67.40
46356;DHT22;32066;49.474;11.106;2022-09-03T05:03:51;15.30;67.50
46356;DHT22;32066;49.474;11.106;2022-09-03T05:06:19;15.20;67.70
46356;DHT22;32066;49.474;11.106;2022-09-03T05:08:47;15.20;68.10
46356;DHT22;32066;49.474;11.106;2022-09-03T05:11:14;15.30;67.90
46356;DHT22;32066;49.474;11.106;2022-09-03T05:13:41;15.40;67.70
46356;DHT22;32066;49.474;11.106;2022-09-03T05:16:09;15.30;67.90
46356;DHT22;32066;49.474;11.106;2022-09-03T05:18:37;15.30;67.70
46356;DHT22;32066;49.474;11.106;2022-09-03T05:21:07;15.30;67.50
46356;DHT22;32066;49.474;11.106;2022-09-03T05:23:35;15.20;67.90
46356;DHT22;32066;49.474;11.106;2022-09-03T05:26:04;15.00;68.30
46356;DHT22;32066;49.474;11.106;2022-09-03T05:28:34;14.90;68.60
46356;DHT22;32066;49.474;11.106;2022-09-03T05:31:03;14.70;69.30
46356;DHT22;32066;49.474;11.106;2022-09-03T05:33:32;14.50;70.40
46356;DHT22;32066;49.474;11.106;2022-09-03T05:36:00;14.60;70.50
46356;DHT22;32066;49.474;11.106;2022-09-03T05:38:29;14.50;70.50
46356;DHT22;32066;49.474;11.106;2022-09-03T05:40:57;14.40;71.00
46356;DHT22;32066;49.474;11.106;2022-09-03T05:43:25;14.30;71.50
46356;DHT22;32066;49.474;11.106;2022-09-03T05:45:56;14.30;71.90
46356;DHT22;32066;49.474;11.106;2022-09-03T05:48:23;14.30;72.20
46356;DHT22;32066;49.474;11.106;2022-09-03T05:50:57;14.50;71.90
46356;DHT22;32066;49.474;11.106;2022-09-03T05:53:25;14.60;71.30
46356;DHT22;32066;49.474;11.106;2022-09-03T05:55:56;14.60;71.20
46356;DHT22;32066;49.474;11.106;2022-09-03T05:58:23;14.50;71.30
46356;DHT22;32066;49.474;11.106;2022-09-03T06:00:51;14.60;71.40
46356;DHT22;32066;49.474;11.106;2022-09-03T06:03:18;14.70;71.70
46356;DHT22;32066;49.474;11.106;2022-09-03T06:05:49;14.80;71.20
46356;DHT22;32066;49.474;11.106;2022-09-03T06:08:16;15.00;71.20
46356;DHT22;32066;49.474;11.106;2022-09-03T06:10:43;15.10;70.80
46356;DHT22;32066;49.474;11.106;2022-09-03T06:13:11;15.30;70.00
46356;DHT22;32066;49.474;11.106;2022-09-03T06:15:38;15.30;69.50
46356;DHT22;32066;49.474;11.106;2022-09-03T06:18:05;15.50;69.60
46356;DHT22;32066;49.474;11.106;2022-09-03T06:20:32;15.60;68.70
46356;DHT22;32066;49.474;11.106;2022-09-03T06:22:59;15.80;68.80
46356;DHT22;32066;49.474;11.106;2022-09-03T06:25:25;16.00;68.50
46356;DHT22;32066;49.474;11.106;2022-09-03T06:27:52;16.00;67.60
46356;DHT22;32066;49.474;11.106;2022-09-03T06:30:21;16.10;67.20
46356;DHT22;32066;49.474;11.106;2022-09-03T06:32:49;16.10;67.70
46356;DHT22;32066;49.474;11.106;2022-09-03T06:35:17;16.10;67.30
46356;DHT22;32066;49.474;11.106;2022-09-03T06:37:44;16.20;67.50
46356;DHT22;32066;49.474;11.106;2022-09-03T06:40:11;16.20;67.20
46356;DHT22;32066;49.474;11.106;2022-09-03T06:42:38;16.20;67.30
46356;DHT22;32066;49.474;11.106;2022-09-03T06:45:08;16.30;67.00
46356;DHT22;32066;49.474;11.106;2022-09-03T06:47:36;16.50;66.80
46356;DHT22;32066;49.474;11.106;2022-09-03T06:50:04;16.50;66.90
46356;DHT22;32066;49.474;11.106;2022-09-03T06:52:36;16.70;66.50
46356;DHT22;32066;49.474;11.106;2022-09-03T06:55:04;16.80;66.40
46356;DHT22;32066;49.474;11.106;2022-09-03T06:57:31;17.00;65.70
46356;DHT22;32066;49.474;11.106;2022-09-03T06:59:58;17.10;64.80
46356;DHT22;32066;49.474;11.106;2022-09-03T07:02:27;17.10;64.50
46356;DHT22;32066;49.474;11.106;2022-09-03T07:04:56;17.00;65.10
46356;DHT22;32066;49.474;11.106;2022-09-03T07:07:23;17.00;65.10
46356;DHT22;32066;49.474;11.106;2022-09-03T07:09:50;17.10;65.70
46356;DHT22;32066;49.474;11.106;2022-09-03T07:12:17;17.30;65.60
46356;DHT22;32066;49.474;11.106;2022-09-03T07:14:45;17.50;64.80
46356;DHT22;32066;49.474;11.106;2022-09-03T07:17:12;17.60;64.30
46356;DHT22;32066;49.474;11.106;2022-09-03T07:19:39;17.80;64.40
46356;DHT22;32066;49.474;11.106;2022-09-03T07:22:07;17.80;64.20
46356;DHT22;32066;49.474;11.106;2022-09-03T07:24:36;17.80;64.20
46356;DHT22;32066;49.474;11.106;2022-09-03T07:27:03;17.80;63.70
46356;DHT22;32066;49.474;11.106;2022-09-03T07:29:31;17.90;63.40
46356;DHT22;32066;49.474;11.106;2022-09-03T07:31:58;18.00;63.50
46356;DHT22;32066;49.474;11.106;2022-09-03T07:34:25;18.20;62.90
46356;DHT22;32066;49.474;11.106;2022-09-03T07:36:52;18.20;63.20
46356;DHT22;32066;49.474;11.106;2022-09-03T07:39:20;18.30;62.40
46356;DHT22;32066;49.474;11.106;2022-09-03T07:41:47;18.30;61.90
46356;DHT22;32066;49.474;11.106;2022-09-03T07:44:16;18.20;61.70
46356;DHT22;32066;49.474;11.106;2022-09-03T07:46:44;18.00;62.60
46356;DHT22;32066;49.474;11.106;2022-09-03T07:49:12;18.00;62.70
46356;DHT22;32066;49.474;11.106;2022-09-03T07:51:39;18.00;63.00
46356;DHT22;32066;49.474;11.106;2022-09-03T07:54:07;18.10;62.90
46356;DHT22;32066;49.474;11.106;2022-09-03T07:56:38;18.20;62.80
46356;DHT22;32066;49.474;11.106;2022-09-03T07:59:06;18.30;62.80
46356;DHT22;32066;49.474;11.106;2022-09-03T08:01:34;18.40;62.70
46356;DHT22;32066;49.474;11.106;2022-09-03T08:04:02;18.60;61.70
46356;DHT22;32066;49.474;11.106;2022-09-03T08:06:32;18.50;61.40
46356;DHT22;32066;49.474;11.106;2022-09-03T08:09:03;18.60;61.30
46356;DHT22;32066;49.474;11.106;2022-09-03T08:11:30;18.60;61.30
46356;DHT22;32066;49.474;11.106;2022-09-03T08:14:01;18.70;61.70
46356;DHT22;32066;49.474;11.106;2022-09-03T08:16:31;18.90;61.80
46356;DHT22;32066;49.474;11.106;2022-09-03T08:18:59;19.10;61.10
46356;DHT22;32066;49.474;11.106;2022-09-03T08:21:27;19.40;60.70
46356;DHT22;32066;49.474;11.106;2022-09-03T08:23:55;19.60;59.70
46356;DHT22;32066;49.474;11.106;2022-09-03T08:26:28;19.80;59.50
46356;DHT22;32066;49.474;11.106;2022-09-03T08:28:56;19.80;58.60
46356;DHT22;32066;49.474;11.106;2022-09-03T08:31:24;20.00;58.80
46356;DHT22;32066;49.474;11.106;2022-09-03T08:33:53;20.20;58.20
46356;DHT22;32066;49.474;11.106;2022-09-03T08:36:22;19.90;57.30
46356;DHT22;32066;49.474;11.106;2022-09-03T08:38:50;19.90;57.10
46356;DHT22;32066;49.474;11.106;2022-09-03T08:41:24;20.20;57.00
46356;DHT22;32066;49.474;11.106;2022-09-03T08:44:08;20.20;56.30
46356;DHT22;32066;49.474;11.106;2022-09-03T08:46:46;20.20;56.30
46356;DHT22;32066;49.474;11.106;2022-09-03T08:49:20;20.20;56.50
46356;DHT22;32066;49.474;11.106;2022-09-03T08:51:49;20.10;56.80
46356;DHT22;32066;49.474;11.106;2022-09-03T08:54:21;19.80;56.40
46356;DHT22;32066;49.474;11.106;2022-09-03T08:56:50;19.70;56.90
46356;DHT22;32066;49.474;11.106;2022-09-03T08:59:17;19.90;57.00
46356;DHT22;32066;49.474;11.106;2022-09-03T09:01:53;19.90;57.40
46356;DHT22;32066;49.474;11.106;2022-09-03T09:04:31;20.00;57.50
46356;DHT22;32066;49.474;11.106;2022-09-03T09:07:06;20.00;56.80
46356;DHT22;32066;49.474;11.106;2022-09-03T09:09:43;19.90;56.40
46356;DHT22;32066;49.474;11.106;2022-09-03T09:12:21;20.00;56.80
46356;DHT22;32066;49.474;11.106;2022-09-03T09:15:03;20.10;56.70
46356;DHT22;32066;49.474;11.106;2022-09-03T09:17:48;20.30;66.50
46356;DHT22;32066;49.474;11.106;2022-09-03T09:20:22;20.70;67.70
46356;DHT22;32066;49.474;11.106;2022-09-03T09:22:53;20.90;61.30
46356;DHT22;32066;49.474;11.106;2022-09-03T09:25:23;21.30;58.90
46356;DHT22;32066;49.474;11.106;2022-09-03T09:27:54;21.50;57.50
46356;DHT22;32066;49.474;11.106;2022-09-03T09:30:25;21.70;62.90
46356;DHT22;32066;49.474;11.106;2022-09-03T09:32:53;21.60;54.60
46356;DHT22;32066;49.474;11.106;2022-09-03T09:35:21;21.50;54.30
46356;DHT22;32066;49.474;11.106;2022-09-03T09:37:50;21.40;57.30
46356;DHT22;32066;49.474;11.106;2022-09-03T09:40:29;21.70;57.50
46356;DHT22;32066;49.474;11.106;2022-09-03T09:43:04;22.00;57.60
46356;DHT22;32066;49.474;11.106;2022-09-03T09:45:31;22.20;59.00
46356;DHT22;32066;49.474;11.106;2022-09-03T09:48:01;22.40;56.50
46356;DHT22;32066;49.474;11.106;2022-09-03T09:50:28;22.50;54.00
46356;DHT22;32066;49.474;11.106;2022-09-03T09:52:59;22.50;55.10
46356;DHT22;32066;49.474;11.106;2022-09-03T09:55:30;22.70;57.20
46356;DHT22;32066;49.474;11.106;2022-09-03T09:58:04;22.80;57.00
46356;DHT22;32066;49.474;11.106;2022-09-03T10:00:33;22.90;54.80
46356;DHT22;32066;49.474;11.106;2022-09-03T10:03:06;23.00;53.20
46356;DHT22;32066;49.474;11.106;2022-09-03T10:05:36;22.90;52.50
46356;DHT22;32066;49.474;11.106;2022-09-03T10:08:07;23.00;52.90
46356;DHT22;32066;49.474;11.106;2022-09-03T10:10:46;22.80;52.00
46356;DHT22;32066;49.474;11.106;2022-09-03T10:13:17;22.90;53.90
46356;DHT22;32066;49.474;11.106;2022-09-03T10:15:50;23.00;54.00
46356;DHT22;32066;49.474;11.106;2022-09-03T10:18:28;22.60;51.50
46356;DHT22;32066;49.474;11.106;2022-09-03T10:21:03;22.90;56.40
46356;DHT22;32066;49.474;11.106;2022-09-03T10:23:38;22.90;54.90
46356;DHT22;32066;49.474;11.106;2022-09-03T10:26:09;22.90;55.30
46356;DHT22;32066;49.474;11.106;2022-09-03T10:28:38;22.90;56.00
46356;DHT22;32066;49.474;11.106;2022-09-03T10:31:35;23.10;54.30
46356;DHT22;32066;49.474;11.106;2022-09-03T10:34:11;23.20;53.20
46356;DHT22;32066;49.474;11.106;2022-09-03T10:36:45;23.30;53.30
46356;DHT22;32066;49.474;11.106;2022-09-03T10:39:20;23.40;53.50
46356;DHT22;32066;49.474;11.106;2022-09-03T10:41:57;23.50;53.40
46356;DHT22;32066;49.474;11.106;2022-09-03T10:44:46;23.50;52.80
46356;DHT22;32066;49.474;11.106;2022-09-03T10:47:28;23.60;52.50
46356;DHT22;32066;49.474;11.106;2022-09-03T10:50:09;23.60;52.30
46356;DHT22;32066;49.474;11.106;2022-09-03T10:52:55;23.80;52.00
46356;DHT22;32066;49.474;11.106;2022-09-03T10:55:29;24.00;51.70
46356;DHT22;32066;49.474;11.106;2022-09-03T10:58:12;24.10;51.70
46356;DHT22;32066;49.474;11.106;2022-09-03T11:00:48;24.00;50.70
46356;DHT22;32066;49.474;11.106;2022-09-03T11:03:40;24.30;51.50
46356;DHT22;32066;49.474;11.106;2022-09-03T11:06:16;24.50;51.00
46356;DHT22;32066;49.474;11.106;2022-09-03T11:08:50;24.60;51.00
46356;DHT22;32066;49.474;11.106;2022-09-03T11:11:20;24.70;51.20
46356;DHT22;32066;49.474;11.106;2022-09-03T11:13:55;24.50;50.30
46356;DHT22;32066;49.474;11.106;2022-09-03T11:16:25;24.50;51.50
46356;DHT22;32066;49.474;11.106;2022-09-03T11:18:56;24.60;51.70
46356;DHT22;32066;49.474;11.106;2022-09-03T11:21:29;24.50;52.60
46356;DHT22;32066;49.474;11.106;2022-09-03T11:24:04;24.30;52.40
46356;DHT22;32066;49.474;11.106;2022-09-03T11:26:33;24.40;52.60
46356;DHT22;32066;49.474;11.106;2022-09-03T11:29:05;24.40;52.60
46356;DHT22;32066;49.474;11.106;2022-09-03T11:31:44;24.50;53.00
46356;DHT22;32066;49.474;11.106;2022-09-03T11:34:14;24.50;52.80
46356;DHT22;32066;49.474;11.106;2022-09-03T11:36:42;24.50;53.30
46356;DHT22;32066;49.474;11.106;2022-09-03T11:39:17;24.50;52.30
46356;DHT22;32066;49.474;11.106;2022-09-03T11:41:56;24.50;52.50
46356;DHT22;32066;49.474;11.106;2022-09-03T11:44:24;24.40;51.90
46356;DHT22;32066;49.474;11.106;2022-09-03T11:47:13;24.10;52.50
46356;DHT22;32066;49.474;11.106;2022-09-03T11:49:45;24.20;52.80
46356;DHT22;32066;49.474;11.106;2022-09-03T11:52:26;24.40;53.50
46356;DHT22;32066;49.474;11.106;2022-09-03T11:54:53;24.50;53.10
46356;DHT22;32066;49.474;11.106;2022-09-03T11:57:26;24.40;53.70
46356;DHT22;32066;49.474;11.106;2022-09-03T11:59:54;24.10;53.70
46356;DHT22;32066;49.474;11.106;2022-09-03T12:02:35;24.00;55.10
46356;DHT22;32066;49.474;11.106;2022-09-03T12:05:16;24.10;54.90
46356;DHT22;32066;49.474;11.106;2022-09-03T12:08:04;24.10;54.60
46356;DHT22;32066;49.474;11.106;2022-09-03T12:10:44;24.20;54.80
46356;DHT22;32066;49.474;11.106;2022-09-03T12:13:21;24.20;55.00
46356;DHT22;32066;49.474;11.106;2022-09-03T12:16:13;24.40;54.60
46356;DHT22;32066;49.474;11.106;2022-09-03T12:18:43;24.40;54.40
46356;DHT22;32066;49.474;11.106;2022-09-03T12:21:16;24.40;54.30
46356;DHT22;32066;49.474;11.106;2022-09-03T12:23:45;24.30;54.30
46356;DHT22;32066;49.474;11.106;2022-09-03T12:26:15;24.20;54.80
46356;DHT22;32066;49.474;11.106;2022-09-03T12:28:44;24.20;54.60
46356;DHT22;32066;49.474;11.106;2022-09-03T12:31:15;24.10;54.70
46356;DHT22;32066;49.474;11.106;2022-09-03T12:33:51;24.20;55.40
46356;DHT22;32066;49.474;11.106;2022-09-03T12:36:19;24.00;54.90
46356;DHT22;32066;49.474;11.106;2022-09-03T12:38:47;24.10;54.90
46356;DHT22;32066;49.474;11.106;2022-09-03T12:41:23;24.40;54.90
46356;DHT22;32066;49.474;11.106;2022-09-03T12:43:52;24.40;54.30
46356;DHT22;32066;49.474;11.106;2022-09-03T12:46:22;24.50;55.20
46356;DHT22;32066;49.474;11.106;2022-09-03T12:48:57;24.70;54.20
46356;DHT22;32066;49.474;11.106;2022-09-03T12:51:31;24.90;54.00
46356;DHT22;32066;49.474;11.106;2022-09-03T12:54:01;25.00;53.10
46356;DHT22;32066;49.474;11.106;2022-09-03T12:56:28;24.90;53.50
46356;DHT22;32066;49.474;11.106;2022-09-03T12:58:59;25.20;53.30
46356;DHT22;32066;49.474;11.106;2022-09-03T13:01:29;25.20;52.50
46356;DHT22;32066;49.474;11.106;2022-09-03T13:04:02;25.40;53.10
46356;DHT22;32066;49.474;11.106;2022-09-03T13:06:32;25.50;53.90
46356;DHT22;32066;49.474;11.106;2022-09-03T13:09:03;25.50;52.60
46356;DHT22;32066;49.474;11.106;2022-09-03T13:11:33;25.40;52.70
46356;DHT22;32066;49.474;11.106;2022-09-03T13:14:03;25.40;52.30
46356;DHT22;32066;49.474;11.106;2022-09-03T13:19:43;25.20;53.20
46356;DHT22;32066;49.474;11.106;2022-09-03T13:22:21;24.70;53.30
46356;DHT22;32066;49.474;11.106;2022-09-03T13:25:11;24.70;53.90
46356;DHT22;32066;49.474;11.106;2022-09-03T13:27:45;24.60;54.50
46356;DHT22;32066;49.474;11.106;2022-09-03T13:30:19;24.50;53.80
46356;DHT22;32066;49.474;11.106;2022-09-03T13:32:55;24.20;54.60
46356;DHT22;32066;49.474;11.106;2022-09-03T13:35:33;24.30;55.10
46356;DHT22;32066;49.474;11.106;2022-09-03T13:38:08;24.10;54.80
46356;DHT22;32066;49.474;11.106;2022-09-03T13:40:44;23.90;55.70
46356;DHT22;32066;49.474;11.106;2022-09-03T13:43:22;24.10;55.80
46356;DHT22;32066;49.474;11.106;2022-09-03T13:45:55;24.00;55.50
46356;DHT22;32066;49.474;11.106;2022-09-03T13:48:29;24.10;55.90
46356;DHT22;32066;49.474;11.106;2022-09-03T13:51:19;23.90;55.50
46356;DHT22;32066;49.474;11.106;2022-09-03T13:53:56;24.00;55.80
46356;DHT22;32066;49.474;11.106;2022-09-03T13:56:34;24.10;55.80
46356;DHT22;32066;49.474;11.106;2022-09-03T13:59:06;23.90;56.00
46356;DHT22;32066;49.474;11.106;2022-09-03T14:01:49;24.00;56.40
46356;DHT22;32066;49.474;11.106;2022-09-03T14:04:24;24.10;56.40
46356;DHT22;32066;49.474;11.106;2022-09-03T14:06:58;23.90;56.80
46356;DHT22;32066;49.474;11.106;2022-09-03T14:09:34;24.10;56.60
46356;DHT22;32066;49.474;11.106;2022-09-03T14:12:14;24.10;56.60
46356;DHT22;32066;49.474;11.106;2022-09-03T14:14:49;23.90;56.90
46356;DHT22;32066;49.474;11.106;2022-09-03T14:17:25;23.80;56.50
46356;DHT22;32066;49.474;11.106;2022-09-03T14:19:59;23.90;57.10
46356;DHT22;32066;49.474;11.106;2022-09-03T14:22:36;24.10;57.10
46356;DHT22;32066;49.474;11.106;2022-09-03T14:25:10;24.00;56.70
46356;DHT22;32066;49.474;11.106;2022-09-03T14:27:40;23.90;56.70
46356;DHT22;32066;49.474;11.106;2022-09-03T14:30:23;24.00;56.90
46356;DHT22;32066;49.474;11.106;2022-09-03T14:32:54;23.80;57.40
46356;DHT22;32066;49.474;11.106;2022-09-03T14:35:39;23.80;57.30
46356;DHT22;32066;49.474;11.106;2022-09-03T14:38:31;23.80;57.60
46356;DHT22;32066;49.474;11.106;2022-09-03T14:41:04;23.70;58.00
46356;DHT22;32066;49.474;11.106;2022-09-03T14:47:08;23.60;58.50
46356;DHT22;32066;49.474;11.106;2022-09-03T14:49:56;23.80;58.70
46356;DHT22;32066;49.474;11.106;2022-09-03T14:52:46;23.80;58.40
46356;DHT22;32066;49.474;11.106;2022-09-03T14:55:46;24.00;58.40
46356;DHT22;32066;49.474;11.106;2022-09-03T14:58:31;24.00;58.50
46356;DHT22;32066;49.474;11.106;2022-09-03T15:01:05;24.10;58.40
46356;DHT22;32066;49.474;11.106;2022-09-03T15:04:08;24.10;58.10
46356;DHT22;32066;49.474;11.106;2022-09-03T15:06:48;24.10;58.50
46356;DHT22;32066;49.474;11.106;2022-09-03T15:09:26;24.10;58.40
46356;DHT22;32066;49.474;11.106;2022-09-03T15:11:56;24.10;59.10
46356;DHT22;32066;49.474;11.106;2022-09-03T15:14:28;24.10;58.70
46356;DHT22;32066;49.474;11.106;2022-09-03T15:17:16;24.10;58.90
46356;DHT22;32066;49.474;11.106;2022-09-03T15:19:57;24.00;59.00
46356;DHT22;32066;49.474;11.106;2022-09-03T15:22:40;24.10;59.10
46356;DHT22;32066;49.474;11.106;2022-09-03T15:25:18;24.00;58.90
46356;DHT22;32066;49.474;11.106;2022-09-03T15:28:04;23.90;59.40
46356;DHT22;32066;49.474;11.106;2022-09-03T15:30:56;23.90;59.50
46356;DHT22;32066;49.474;11.106;2022-09-03T15:33:35;23.80;59.80
46356;DHT22;32066;49.474;11.106;2022-09-03T15:36:14;23.80;60.20
46356;DHT22;32066;49.474;11.106;2022-09-03T15:38:48;23.80;60.20
46356;DHT22;32066;49.474;11.106;2022-09-03T15:41:35;23.80;59.70
46356;DHT22;32066;49.474;11.106;2022-09-03T15:44:10;23.90;60.50
46356;DHT22;32066;49.474;11.106;2022-09-03T15:46:48;23.80;60.20
46356;DHT22;32066;49.474;11.106;2022-09-03T15:49:26;23.80;60.50
46356;DHT22;32066;49.474;11.106;2022-09-03T15:52:05;23.80;60.50
46356;DHT22;32066;49.474;11.106;2022-09-03T15:54:41;23.80;60.70